AirNav   Phillips 66 Aviation Fuel
 
 1162 users online  

0IN6 Morrison Flight Park
Linton, Indiana, USA


FAA INFORMATION EFFECTIVE 01 FEBRUARY 2018

Location

FAA Identifier: 0IN6
Lat/Long: 39-01-18.2000N / 087-11-13.4000W
39-01.303333N / 087-11.223333W
39.0217222 / -87.1870556
(estimated)
Elevation: 520 ft. / 158 m (estimated)
Variation: 02W (1995)
From city: 2 miles SW of LINTON, IN
Time zone: UTC -5 (UTC -4 during Daylight Saving Time)
Zip code: 47441

Ultralight Flight Park Operations

Ultralight Flight Park use: Private use. Permission required prior to landing
Activation date: 05/1999
Control tower: no
ARTCC: INDIANAPOLIS CENTER
FSS: TERRE HAUTE FLIGHT SERVICE STATION
Attendance: UNATNDD
Wind indicator: yes
Segmented circle: no

Ultralight Flight Park Communications

WX AWOS-3PT at DCY (19 nm S): 124.1 (812-257-8889)

Nearby radio navigation aids

VOR radial/distance  VOR name  Freq  Var
LWVr053/24.6LAWRENCEVILLE VOR/DME108.8001W
OOMr257/27.7HOOSIER VORTAC110.2002W
TTHr172/28.2TERRE HAUTE VORTAC115.3002E

 
NDB name  Hdg/Dist  Freq  Var  ID
SULLIVAN116/13.332602WSIV ... .. ...-
PALESTINE092/21.239103WPLX .--. .-.. -..-

Ultralight Flight Park Services

Runway Information

Runway 18U/36U

Dimensions: 1225 x 70 ft. / 373 x 21 m
Surface: turf, in good condition
RUNWAY 18U  RUNWAY 36U
Latitude: 39-01.404000N39-01.202167N
Longitude: 087-11.227333W087-11.220500W
Traffic pattern: leftleft
Displaced threshold: no225 ft.
RY 36 DSPLCD THLD MKD WITH 2 YELLOW TIRES ON EACH SIDE OF RY.
Obstructions: none15 ft. road, 10 ft. from runway
RWY 36U APP SLOPE TO DSPLCD T-HOLD 15:1.

Ultralight Flight Park Ownership and Management from official FAA records

Ownership: Privately-owned
Owner: LESTER W. MORRISON
13062 W 25 S
LINTON, IN 04741
Phone 812-847-2321
Manager: LESTER W. MORRISON
13062 W 25 S
LINTON, IN 47441
Phone 812-847-2321

Ultralight Flight Park Operational Statistics

Aircraft based on the field: 2
Ultralights: 2
    
Aircraft operations: avg 35/month *
90% local general aviation
10% transient general aviation
* for 12-month period ending 31 December 2003

Additional Remarks

400 FT TOWER 900 FT NW OF RY 36 & 390 FT TOWER 1/2 MILE ENE OF RY 36.

Instrument Procedures

There are no published instrument procedures at 0IN6.

Some nearby airports with instrument procedures:

KSIV - Sullivan County Airport (13 nm NW)
KDCY - Daviess County Airport (19 nm S)
KRSV - Crawford County Airport (22 nm W)
KLWV - Lawrenceville-Vincennes International Airport (25 nm SW)
KHUF - Terre Haute Regional Airport (26 nm N)
 
Loc | Ops | Rwys | IFR | FBO | Links
Com | Nav | Svcs | Stats | Notes

AirNav Hotels Sweepstakes
 
Area around 0IN6 (Morrison Flight Park)
 
Road maps at: MapQuest Bing Google
 
Aerial photo
WARNING: Photo may not be current or correct
Aerial photo of 0IN6 (Morrison Flight Park)
Do you have a better or more recent aerial photo of Morrison Flight Park that you would like to share? If so, please send us your photo.

 
Sectional chart

 
Airport distance calculator
Flying to Morrison Flight Park? Find the distance to fly.

From to 0IN6

Sunrise and sunset
Times for 25-Feb-2018
 Local
(UTC-5)
 Zulu
(UTC)
Morning civil twilight07:0112:01
Sunrise07:2812:28
Sunset18:3623:36
Evening civil twilight19:0300:03

Current date and time
Zulu (UTC)  25-Feb-2018 21:57:22
Local (UTC-5)  25-Feb-2018 16:57:22
 
METAR
KDCY 
19nm S 
252135Z AUTO 25007KT 10SM CLR 09/M01 A3009 RMK AO2 T00891006
KRSV 
22nm W 
252135Z AUTO 28008KT 10SM CLR 09/02 A3010 RMK AO2 T00850015
KLWV 
25nm SW 
252153Z AUTO 25008KT 10SM CLR 11/01 A3010 RMK AO2 SLP193 T01060006 $
KHUF 
27nm N 
252153Z 24012KT 10SM CLR 09/00 A3008 RMK AO2 SLP189 T00890000
KBMG 
28nm E 
252153Z 26007KT 10SM CLR 08/M01 A3006 RMK AO2 SLP183 T00831011
KAJG 
35nm SW 
252135Z AUTO 28008KT 10SM CLR 10/02 A3009 RMK AO2 T00960015
TAF
KHUF 
27nm N 
251720Z 2518/2618 25014KT P6SM FEW250 FM252200 26009KT P6SM FEW250 FM260000 27005KT P6SM FEW250 FM261600 18004KT P6SM SKC
KBMG 
28nm E 
251720Z 2518/2618 25012KT P6SM SCT250 FM252200 26008KT P6SM FEW250 FM260000 27004KT P6SM FEW250
NOTAMs
Click for the latest NOTAMs
NOTAMs are issued by the DoD/FAA and will open in a separate window not controlled by AirNav.

 

 
 

Would you like to see your business listed on this page?

 If your business provides an interesting product or service to pilots, flight crews, aircraft, or users of the Morrison Flight Park, you should consider listing it here.  To start the listing process, click on the button below
 
Add a business
 

Other Pages about Morrison Flight Park

flightpark4u8.homestead.com
 
Update a link
 
Copyright © AirNav, LLC. All rights reserved. Privacy Policy  Contact